»·PEaware :: N850VJ KSNA-KHND

N850VJ :: KSNA-KHND

FLIGHT INFORMATION

Flight Status: Arrived
Operator: Privately registered:
United States
More flights under this callsign
Pilot: Anonymous 13363 (13363)
Aircraft: Unknown
(TBM9)
More flights by this aircraft type
Origin: KSNA John Wayne-Orange Co
United States
Destination: KHND Henderson
United States
More flights between these airports :: More routes between these airports
Route: +MUSEL8 DAG CLARR3
File this flight plan on PilotEdge
Remarks: FIFE TRREEEEEE
Altitude:
(Current/Filed)
27,000ft
Speed:
(Current/Filed)
330kts
Departed: 21-Jan-18 03:59 PM
Arrived: 21-Jan-18 04:53 PM
Distance/Time
Traveled:
193nm/0:54
Distance/Time
To Go:
Arrived

Flight Plot

Page will automatically refresh every two minutes.

Flight plan parsing failed; only flown route is shown


Map Options




Map Legend


Flown Route
Filed Route
Departure Airport
Arrival Airport
Navaid (VOR, NDB)
Fix

Horizontal Profiles

Position Reports

Time Latitude Longitude Heading Altitude Ground
Speed
21-Jan-18 15:47 33.666908 -117.872521 224 59ft 0kts
21-Jan-18 15:48 33.666908 -117.872521 224 59ft 0kts
21-Jan-18 15:49 33.666908 -117.872521 224 59ft 0kts
21-Jan-18 15:50 33.666908 -117.872521 224 59ft 0kts
21-Jan-18 15:51 33.666908 -117.872521 224 59ft 0kts
21-Jan-18 15:52 33.666908 -117.872521 224 59ft 0kts
21-Jan-18 15:53 33.666908 -117.872521 224 59ft 0kts
21-Jan-18 15:54 33.666908 -117.872521 224 59ft 0kts
21-Jan-18 15:55 33.666908 -117.872521 224 59ft 0kts
21-Jan-18 15:56 33.666908 -117.872521 224 59ft 0kts
21-Jan-18 15:57 33.666908 -117.872521 224 59ft 0kts
21-Jan-18 15:58 33.666908 -117.872521 224 59ft 0kts
21-Jan-18 15:59 33.668048 -117.872035 40 59ft 12kts
21-Jan-18 16:00 33.671294 -117.868678 38 59ft 18kts
21-Jan-18 16:01 33.674950 -117.865913 26 59ft 16kts
21-Jan-18 16:02 33.679375 -117.863113 28 59ft 19kts
21-Jan-18 16:03 33.680755 -117.863261 296 59ft 3kts
21-Jan-18 16:04 33.681481 -117.865127 242 59ft 7kts
21-Jan-18 16:05 33.653382 -117.879206 190 1541ft 131kts
21-Jan-18 16:06 33.619976 -117.885045 190 4077ft 124kts
21-Jan-18 16:07 33.587410 -117.890944 189 5061ft 184kts
21-Jan-18 16:08 33.538094 -117.899854 189 6348ft 158kts
21-Jan-18 16:09 33.493483 -117.907569 194 9574ft 133kts
21-Jan-18 16:10 33.483429 -117.931985 321 11269ft 127kts
21-Jan-18 16:11 33.516255 -117.945912 336 13461ft 133kts
21-Jan-18 16:12 33.558064 -117.962915 334 16112ft 139kts
21-Jan-18 16:13 33.589430 -117.946203 27 17915ft 173kts
21-Jan-18 16:14 33.626740 -117.909544 27 20070ft 180kts
21-Jan-18 16:15 33.666130 -117.870855 26 22182ft 188kts
21-Jan-18 16:16 33.707334 -117.830389 26 24214ft 197kts
21-Jan-18 16:17 33.750193 -117.788157 24 26358ft 204kts
21-Jan-18 16:18 33.799657 -117.740035 27 27032ft 269kts
21-Jan-18 16:19 33.862775 -117.678069 29 27003ft 312kts
21-Jan-18 16:20 33.930886 -117.610805 29 26993ft 322kts
21-Jan-18 16:21 33.999849 -117.542605 30 26967ft 328kts
21-Jan-18 16:22 34.070187 -117.472947 30 26966ft 330kts
21-Jan-18 16:23 34.135899 -117.407783 30 26971ft 331kts
21-Jan-18 16:24 34.204565 -117.339599 30 26960ft 330kts
21-Jan-18 16:25 34.274109 -117.270389 30 26987ft 324kts
21-Jan-18 16:26 34.344139 -117.200641 30 26989ft 328kts
21-Jan-18 16:27 34.414411 -117.130501 30 26962ft 330kts
21-Jan-18 16:28 34.485152 -117.059734 30 26962ft 331kts
21-Jan-18 16:29 34.555808 -116.988917 30 26967ft 331kts
21-Jan-18 16:30 34.626668 -116.917738 30 26990ft 331kts
21-Jan-18 16:31 34.697628 -116.846300 30 26990ft 332kts
21-Jan-18 16:32 34.768052 -116.775236 30 26990ft 331kts
21-Jan-18 16:33 34.838424 -116.704050 30 26990ft 329kts
21-Jan-18 16:34 34.908763 -116.632736 30 26991ft 329kts
21-Jan-18 16:35 34.977295 -116.558914 36 27021ft 333kts
21-Jan-18 16:36 35.041000 -116.479676 36 26651ft 309kts
21-Jan-18 16:37 35.102191 -116.403823 37 23969ft 299kts
21-Jan-18 16:38 35.154145 -116.338824 37 24010ft 276kts
21-Jan-18 16:39 35.207031 -116.272694 37 23766ft 280kts
21-Jan-18 16:40 35.264490 -116.200857 38 22473ft 307kts
21-Jan-18 16:41 35.324967 -116.124859 39 21076ft 315kts
21-Jan-18 16:42 35.386141 -116.047728 39 19667ft 316kts
21-Jan-18 16:43 35.446878 -115.970948 39 18273ft 314kts
21-Jan-18 16:44 35.507149 -115.894556 40 16891ft 311kts
21-Jan-18 16:45 35.566614 -115.819003 40 15524ft 307kts
21-Jan-18 16:46 35.625386 -115.744163 40 14173ft 303kts
21-Jan-18 16:47 35.683275 -115.669795 46 12937ft 299kts
21-Jan-18 16:48 35.705545 -115.576412 71 12080ft 262kts
21-Jan-18 16:49 35.722246 -115.494069 71 10466ft 236kts
21-Jan-18 16:50 35.740790 -115.420162 71 8757ft 218kts
21-Jan-18 16:51 35.759213 -115.350707 71 7055ft 210kts
21-Jan-18 16:52 35.783275 -115.298398 41 6969ft 169kts
21-Jan-18 16:53 35.816600 -115.257767 48 6123ft 173kts
21-Jan-18 16:54 35.848788 -115.211980 48 5143ft 150kts
21-Jan-18 16:55 35.878391 -115.180657 37 4508ft 135kts
21-Jan-18 16:56 35.908212 -115.151863 42 4101ft 134kts
21-Jan-18 16:57 35.937978 -115.135891 3 3160ft 101kts
21-Jan-18 16:58 35.962030 -115.135579 4 2488ft 80kts
21-Jan-18 16:59 35.974377 -115.135932 262 2446ft 13kts
21-Jan-18 17:00 35.974879 -115.137988 319 2446ft 15kts
21-Jan-18 17:01 35.977383 -115.137600 1 2447ft 0kts
21-Jan-18 17:02 35.977383 -115.137600 1 2447ft 0kts
21-Jan-18 17:03 35.977383 -115.137600 1 2447ft 0kts
21-Jan-18 17:04 35.977383 -115.137600 1 2447ft 0kts
21-Jan-18 17:05 35.977383 -115.137600 1 2447ft 0kts
21-Jan-18 17:06 35.977383 -115.137600 1 2447ft 0kts
21-Jan-18 17:07 35.977383 -115.137600 1 2447ft 0kts
21-Jan-18 17:08 35.977383 -115.137600 1 2447ft 0kts
21-Jan-18 17:09 35.977383 -115.137600 1 2447ft 0kts
21-Jan-18 17:10 35.977383 -115.137600 1 2447ft 0kts
21-Jan-18 17:11 35.977383 -115.137600 1 2447ft 0kts
21-Jan-18 17:12 35.977383 -115.137600 1 2447ft 0kts
21-Jan-18 17:13 35.977383 -115.137600 1 2447ft 0kts

Navigation Log

Ident Type
Flight plan parsing failed, navigation log unavailable